Time;durP1;ratioP1;P1;durP2;ratioP2;P2;SDS_P1;SDS_P2;PMS_P1;PMS_P2;Temp;Humidity;BMP_temperature;BMP_pressure;BME280_temperature;BME280_humidity;BME280_pressure;Samples;Min_cycle;Max_cycle;Signal;HPM_P1;HPM_P2
2022/09/30 00:01:47;;;;;;;8.67;3.53;;;8.00;99.90;;;;;;5110199;28;20434;-63
2022/09/30 00:04:16;;;;;;;14.40;3.90;;;8.10;99.90;;;;;;5115305;28;20421;-64
2022/09/30 00:06:42;;;;;;;8.93;3.30;;;8.10;99.90;;;;;;5114859;28;20856;-64
2022/09/30 00:09:10;;;;;;;5.67;3.10;;;8.10;99.90;;;;;;5115495;28;20422;-63
2022/09/30 00:11:38;;;;;;;6.67;3.30;;;8.00;99.90;;;;;;5115895;28;20492;-64
2022/09/30 00:14:05;;;;;;;8.60;3.07;;;8.00;99.90;;;;;;5101909;28;20491;-64
2022/09/30 00:16:33;;;;;;;4.40;2.67;;;7.90;99.90;;;;;;5102114;28;20436;-65
2022/09/30 00:18:59;;;;;;;11.20;3.63;;;7.90;99.90;;;;;;5113929;28;20424;-63
2022/09/30 00:21:25;;;;;;;9.47;3.23;;;7.90;99.90;;;;;;5115508;28;20432;-64
2022/09/30 00:23:51;;;;;;;6.90;3.53;;;7.90;99.90;;;;;;5115570;28;20421;-64
2022/09/30 00:26:19;;;;;;;7.30;3.07;;;8.00;99.90;;;;;;5107993;28;20463;-64
2022/09/30 00:28:55;;;;;;;4.47;2.43;;;7.90;99.90;;;;;;5114885;28;20172;-64
2022/09/30 00:31:21;;;;;;;5.70;3.17;;;8.00;99.90;;;;;;5102987;28;20417;-62
2022/09/30 00:34:06;;;;;;;9.30;2.73;;;7.90;99.90;;;;;;5114782;27;20453;-62
2022/09/30 00:36:36;;;;;;;5.00;2.33;;;7.90;99.90;;;;;;5115351;28;20490;-63
2022/09/30 00:39:03;;;;;;;6.07;3.23;;;7.90;99.90;;;;;;5107303;28;20808;-63
2022/09/30 00:41:30;;;;;;;6.50;2.60;;;8.00;99.90;;;;;;5114883;28;20424;-64
2022/09/30 00:43:55;;;;;;;5.40;3.30;;;8.00;99.90;;;;;;5109114;28;20514;-64
2022/09/30 00:46:33;;;;;;;8.03;3.47;;;8.00;99.90;;;;;;5115484;28;20865;-63
2022/09/30 00:49:06;;;;;;;6.10;3.13;;;8.00;99.90;;;;;;5108399;28;20183;-64
2022/09/30 00:51:37;;;;;;;4.27;3.40;;;8.00;99.90;;;;;;5107697;28;20425;-64
2022/09/30 00:54:08;;;;;;;4.83;3.70;;;8.10;99.90;;;;;;5098854;28;20454;-64
2022/09/30 00:56:42;;;;;;;7.80;3.07;;;8.10;99.90;;;;;;5105090;28;20421;-64
2022/09/30 00:59:13;;;;;;;7.40;3.20;;;8.10;99.90;;;;;;5094898;28;20426;-64
2022/09/30 01:01:41;;;;;;;4.33;2.60;;;8.20;99.90;;;;;;5094080;28;20422;-63
2022/09/30 01:04:15;;;;;;;7.67;3.67;;;8.10;99.90;;;;;;5107943;28;20467;-64
2022/09/30 01:06:41;;;;;;;3.40;2.30;;;8.10;99.90;;;;;;5096156;28;20413;-64
2022/09/30 01:09:08;;;;;;;7.00;3.37;;;8.10;99.90;;;;;;5108810;28;20436;-64
2022/09/30 01:11:33;;;;;;;6.00;3.10;;;8.10;99.90;;;;;;5107158;28;20418;-64
2022/09/30 01:14:04;;;;;;;5.77;3.03;;;8.10;99.90;;;;;;5099348;28;20653;-63
2022/09/30 01:16:44;;;;;;;10.57;3.20;;;8.10;99.90;;;;;;5114945;28;20187;-63
2022/09/30 01:19:40;;;;;;;6.20;3.70;;;8.10;99.90;;;;;;5100237;28;20496;-63
2022/09/30 01:22:37;;;;;;;6.03;3.40;;;8.20;99.90;;;;;;5112887;28;20502;-63
2022/09/30 01:25:20;;;;;;;5.10;3.30;;;8.20;99.90;;;;;;5114382;28;21163;-64
2022/09/30 01:28:14;;;;;;;8.33;3.77;;;8.20;99.90;;;;;;5109427;28;20748;-63
2022/09/30 01:31:13;;;;;;;5.63;3.03;;;8.20;99.90;;;;;;5103171;28;20997;-64
2022/09/30 01:33:38;;;;;;;20.40;3.70;;;8.20;99.90;;;;;;5100223;28;20543;-64
2022/09/30 01:36:51;;;;;;;6.00;2.90;;;8.10;99.90;;;;;;5114379;28;20520;-65
2022/09/30 01:39:42;;;;;;;6.10;3.30;;;8.20;99.90;;;;;;5107502;28;20182;-63
2022/09/30 01:42:30;;;;;;;9.93;4.40;;;8.20;99.90;;;;;;5100947;28;20422;-64
2022/09/30 01:45:15;;;;;;;5.90;3.30;;;8.20;99.90;;;;;;5100358;28;20406;-63
2022/09/30 01:47:49;;;;;;;6.13;4.13;;;8.20;99.90;;;;;;5110325;28;20415;-64
2022/09/30 01:50:25;;;;;;;15.97;4.50;;;8.20;99.90;;;;;;5111010;28;20906;-64
2022/09/30 01:52:53;;;;;;;8.50;3.70;;;8.20;99.90;;;;;;5101994;28;20922;-63
2022/09/30 01:55:44;;;;;;;8.80;4.63;;;8.20;99.90;;;;;;5114177;28;20445;-64
2022/09/30 01:58:19;;;;;;;5.27;3.30;;;8.20;99.90;;;;;;5104008;28;20437;-64
2022/09/30 02:00:51;;;;;;;7.63;3.50;;;8.20;99.90;;;;;;5113882;28;20835;-65
2022/09/30 02:03:55;;;;;;;9.03;3.63;;;8.20;99.90;;;;;;5113066;28;20796;-64
2022/09/30 02:06:27;;;;;;;10.33;4.40;;;8.20;99.90;;;;;;5041622;28;21068;-65
2022/09/30 02:09:03;;;;;;;13.80;4.03;;;8.20;99.90;;;;;;5091526;28;20425;-65
2022/09/30 02:11:33;;;;;;;19.33;4.10;;;8.20;99.90;;;;;;5113500;28;20421;-63
2022/09/30 02:14:01;;;;;;;6.80;4.60;;;8.20;99.90;;;;;;5112150;28;20519;-65
2022/09/30 02:16:42;;;;;;;11.40;4.60;;;8.20;99.90;;;;;;5112171;28;20449;-64
2022/09/30 02:19:17;;;;;;;16.07;4.47;;;8.20;99.90;;;;;;5111906;28;20429;-64
2022/09/30 02:21:49;;;;;;;9.03;4.53;;;8.20;99.90;;;;;;5112747;28;20452;-65
2022/09/30 02:24:18;;;;;;;7.97;4.13;;;8.20;99.90;;;;;;5113540;28;20898;-64
2022/09/30 02:26:47;;;;;;;9.37;3.80;;;8.20;99.90;;;;;;5105602;28;20448;-62
2022/09/30 02:29:31;;;;;;;7.57;3.67;;;8.10;99.90;;;;;;5112939;28;20429;-62
2022/09/30 02:32:03;;;;;;;6.57;3.60;;;8.10;99.90;;;;;;5111834;28;20440;-63
2022/09/30 02:34:42;;;;;;;7.40;4.53;;;8.10;99.90;;;;;;5112964;28;20417;-63
2022/09/30 02:37:19;;;;;;;25.73;4.27;;;8.00;99.90;;;;;;5108198;28;20406;-63
2022/09/30 02:40:01;;;;;;;9.67;3.63;;;8.00;99.90;;;;;;5110813;28;20947;-63
2022/09/30 02:42:29;;;;;;;8.07;3.60;;;8.00;99.90;;;;;;5107194;28;20471;-64
2022/09/30 02:45:04;;;;;;;8.03;3.73;;;8.00;99.90;;;;;;5111760;28;20406;-64
2022/09/30 02:47:43;;;;;;;6.83;3.87;;;8.00;99.90;;;;;;5110779;27;20413;-64
2022/09/30 02:50:11;;;;;;;8.03;3.83;;;8.00;99.90;;;;;;5109160;28;20770;-64
2022/09/30 02:53:13;;;;;;;5.47;3.40;;;8.00;99.90;;;;;;5111484;28;20545;-63
2022/09/30 02:55:48;;;;;;;6.80;3.87;;;8.00;99.90;;;;;;5099472;28;20505;-64
2022/09/30 02:58:24;;;;;;;7.93;4.50;;;8.10;99.90;;;;;;5106193;28;20562;-64
2022/09/30 03:00:51;;;;;;;6.57;3.30;;;8.00;99.90;;;;;;5097653;28;20417;-64
2022/09/30 03:03:25;;;;;;;7.23;3.70;;;8.00;99.90;;;;;;5096947;28;20454;-64
2022/09/30 03:05:51;;;;;;;7.53;3.97;;;7.90;99.90;;;;;;5099088;28;20812;-64
2022/09/30 03:08:17;;;;;;;5.90;3.33;;;7.90;99.90;;;;;;5099432;28;20419;-64
2022/09/30 03:10:49;;;;;;;7.37;4.13;;;7.90;99.90;;;;;;5100130;28;20418;-63
2022/09/30 03:13:27;;;;;;;4.97;2.87;;;7.90;99.90;;;;;;5091220;28;20196;-64
2022/09/30 03:16:07;;;;;;;7.10;3.97;;;7.80;99.90;;;;;;5101995;28;20409;-64
2022/09/30 03:18:36;;;;;;;6.97;3.87;;;7.80;99.90;;;;;;5094967;28;20456;-65
2022/09/30 03:21:42;;;;;;;7.20;4.47;;;7.70;99.90;;;;;;5110317;28;20442;-64
2022/09/30 03:24:10;;;;;;;8.80;3.90;;;7.70;99.90;;;;;;5080165;28;20452;-63
2022/09/30 03:26:53;;;;;;;5.70;3.10;;;7.70;99.90;;;;;;5095442;28;20903;-64
2022/09/30 03:29:44;;;;;;;6.17;3.50;;;7.70;99.90;;;;;;5112579;28;20422;-64
2022/09/30 03:32:27;;;;;;;5.93;3.50;;;7.60;99.90;;;;;;5102501;28;20895;-64
2022/09/30 03:34:54;;;;;;;6.20;3.90;;;7.60;99.90;;;;;;5114075;28;20445;-64
2022/09/30 03:37:44;;;;;;;13.93;3.30;;;7.60;99.90;;;;;;5109754;28;20418;-64
2022/09/30 03:40:23;;;;;;;7.20;3.70;;;7.60;99.90;;;;;;5106857;28;20417;-63
2022/09/30 03:43:13;;;;;;;6.57;3.83;;;7.60;99.90;;;;;;5112187;28;20441;-64
2022/09/30 03:45:51;;;;;;;6.83;3.20;;;7.60;99.90;;;;;;5118060;28;20447;-64
2022/09/30 03:48:18;;;;;;;5.97;3.33;;;7.60;99.90;;;;;;5109055;28;20452;-64
2022/09/30 03:50:44;;;;;;;6.60;3.70;;;7.60;99.90;;;;;;5108025;28;20909;-64
2022/09/30 03:53:11;;;;;;;8.47;4.57;;;7.60;99.90;;;;;;5104980;28;20453;-64
2022/09/30 03:55:48;;;;;;;7.50;3.77;;;7.60;99.90;;;;;;5108956;28;20517;-64
2022/09/30 03:58:16;;;;;;;8.03;4.63;;;7.60;99.90;;;;;;5109558;28;20827;-63
2022/09/30 04:00:48;;;;;;;6.87;3.90;;;7.60;99.90;;;;;;5111391;28;20948;-64
2022/09/30 04:03:15;;;;;;;7.23;4.80;;;7.60;99.90;;;;;;5111447;28;20421;-64
2022/09/30 04:05:41;;;;;;;6.37;3.50;;;7.60;99.90;;;;;;5111999;28;20418;-63
2022/09/30 04:08:08;;;;;;;6.17;3.67;;;7.60;99.90;;;;;;5110734;28;20429;-64
2022/09/30 04:10:33;;;;;;;7.00;3.27;;;7.60;99.90;;;;;;5112021;28;20941;-63
2022/09/30 04:12:59;;;;;;;6.77;4.10;;;7.60;99.90;;;;;;5100387;28;20486;-64
2022/09/30 04:15:26;;;;;;;6.97;3.50;;;7.60;99.90;;;;;;5109569;28;20191;-65
2022/09/30 04:17:52;;;;;;;7.63;3.90;;;7.70;99.90;;;;;;5112131;28;20175;-63
2022/09/30 04:20:17;;;;;;;7.00;4.20;;;7.70;99.90;;;;;;5111326;28;20478;-66
2022/09/30 04:22:43;;;;;;;8.73;4.07;;;7.70;99.90;;;;;;5111594;28;20914;-64
2022/09/30 04:25:09;;;;;;;13.33;5.63;;;7.70;99.90;;;;;;5111230;28;20191;-65
2022/09/30 04:27:34;;;;;;;6.67;3.20;;;7.70;99.90;;;;;;5104181;28;20190;-63
2022/09/30 04:30:00;;;;;;;7.97;3.97;;;7.70;99.90;;;;;;5111393;28;20176;-63
2022/09/30 04:32:27;;;;;;;11.20;5.50;;;7.70;99.90;;;;;;5100716;28;20219;-63
2022/09/30 04:34:53;;;;;;;7.40;4.27;;;7.70;99.90;;;;;;5109014;28;20648;-64
2022/09/30 04:37:19;;;;;;;9.50;3.80;;;7.60;99.90;;;;;;5111811;28;20421;-63
2022/09/30 04:39:44;;;;;;;9.93;3.73;;;7.60;99.90;;;;;;5110027;28;20233;-64
2022/09/30 04:42:10;;;;;;;6.33;3.53;;;7.60;99.90;;;;;;5110075;28;20179;-63
2022/09/30 04:44:36;;;;;;;6.07;3.60;;;7.70;99.90;;;;;;5111135;28;20180;-63
2022/09/30 04:47:02;;;;;;;7.03;3.70;;;7.70;99.90;;;;;;5111909;28;20764;-64
2022/09/30 04:49:27;;;;;;;9.17;5.00;;;7.70;99.90;;;;;;5114790;28;20630;-63
2022/09/30 04:51:53;;;;;;;14.93;4.90;;;7.70;99.90;;;;;;5103339;27;20184;-64
2022/09/30 04:54:19;;;;;;;11.70;4.73;;;7.60;99.90;;;;;;5104666;28;20534;-64
2022/09/30 04:56:44;;;;;;;11.70;4.57;;;7.70;99.90;;;;;;5094832;28;20659;-65
2022/09/30 04:59:10;;;;;;;6.83;3.80;;;7.70;99.90;;;;;;5098988;28;20184;-64
2022/09/30 05:01:38;;;;;;;6.03;3.90;;;7.80;99.90;;;;;;5103339;28;20195;-63
2022/09/30 05:04:03;;;;;;;8.07;4.13;;;7.70;99.90;;;;;;5108069;28;20211;-64
2022/09/30 05:06:29;;;;;;;7.83;3.60;;;7.70;99.90;;;;;;5106678;28;20445;-63
2022/09/30 05:08:55;;;;;;;15.73;7.80;;;7.70;99.90;;;;;;5096051;28;20184;-64
2022/09/30 05:11:21;;;;;;;18.23;7.00;;;7.80;99.90;;;;;;5105613;28;20303;-64
2022/09/30 05:13:47;;;;;;;9.90;5.30;;;7.80;99.90;;;;;;5113214;28;20324;-64
2022/09/30 05:16:13;;;;;;;13.20;6.70;;;7.80;99.90;;;;;;5103449;28;20425;-65
2022/09/30 05:18:41;;;;;;;20.57;7.40;;;7.90;99.90;;;;;;5112650;28;20475;-64
2022/09/30 05:21:07;;;;;;;16.87;7.03;;;7.80;99.90;;;;;;5114660;28;20439;-64
2022/09/30 05:23:32;;;;;;;11.47;5.50;;;7.90;99.90;;;;;;5112540;28;20516;-64
2022/09/30 05:26:00;;;;;;;16.53;6.00;;;7.90;99.90;;;;;;5108311;28;20184;-64
2022/09/30 05:28:25;;;;;;;10.50;5.07;;;7.90;99.90;;;;;;5112347;28;20221;-65
2022/09/30 05:31:05;;;;;;;11.83;5.80;;;7.90;99.90;;;;;;5113335;28;20429;-64
2022/09/30 05:33:31;;;;;;;10.77;5.23;;;7.90;99.90;;;;;;5113379;28;20290;-64
2022/09/30 05:36:02;;;;;;;10.40;4.57;;;7.90;99.90;;;;;;5114563;28;21076;-63
2022/09/30 05:38:28;;;;;;;9.10;4.13;;;7.90;99.90;;;;;;5100660;28;20795;-64
2022/09/30 05:40:54;;;;;;;19.97;5.90;;;7.90;99.90;;;;;;5114366;28;20414;-64
2022/09/30 05:43:20;;;;;;;9.60;5.63;;;8.00;99.90;;;;;;5107031;28;20187;-63
2022/09/30 05:45:56;;;;;;;14.50;4.90;;;8.00;99.90;;;;;;5114430;28;20195;-64
2022/09/30 05:48:23;;;;;;;11.27;4.63;;;8.00;99.90;;;;;;5112323;28;20465;-64
2022/09/30 05:50:52;;;;;;;7.27;4.47;;;8.00;99.90;;;;;;5114035;28;20878;-63
2022/09/30 05:53:18;;;;;;;8.67;4.87;;;8.00;99.90;;;;;;5113369;28;20476;-63
2022/09/30 05:55:47;;;;;;;9.00;4.77;;;8.10;99.90;;;;;;5100344;28;20421;-64
2022/09/30 05:58:16;;;;;;;10.10;5.20;;;8.10;99.90;;;;;;5114055;28;20180;-64
2022/09/30 06:00:44;;;;;;;10.60;6.00;;;8.20;99.90;;;;;;5113683;28;20428;-64
2022/09/30 06:03:10;;;;;;;7.30;4.17;;;8.20;99.90;;;;;;5111907;28;20808;-65
2022/09/30 06:05:36;;;;;;;10.03;5.60;;;8.30;99.90;;;;;;5113615;28;20478;-64
2022/09/30 06:08:03;;;;;;;13.43;6.53;;;8.30;99.90;;;;;;5113994;28;20421;-64
2022/09/30 06:10:29;;;;;;;18.07;7.47;;;8.40;99.90;;;;;;5113491;28;20595;-64
2022/09/30 06:12:57;;;;;;;10.90;6.20;;;8.40;99.90;;;;;;5107252;28;20453;-63
2022/09/30 06:15:24;;;;;;;9.40;5.10;;;8.40;99.90;;;;;;5108141;27;20425;-64
2022/09/30 06:17:53;;;;;;;9.23;5.10;;;8.50;99.90;;;;;;5105500;28;20459;-65
2022/09/30 06:20:19;;;;;;;10.40;5.70;;;8.60;99.90;;;;;;5112456;27;20452;-64
2022/09/30 06:22:45;;;;;;;10.23;4.60;;;8.70;99.90;;;;;;5113295;28;20425;-65
2022/09/30 06:25:10;;;;;;;9.10;5.40;;;8.70;99.90;;;;;;5112115;28;20429;-65
2022/09/30 06:27:37;;;;;;;18.33;6.40;;;8.80;99.90;;;;;;5097216;28;20611;-64
2022/09/30 06:30:04;;;;;;;37.30;6.80;;;8.80;99.90;;;;;;5111838;28;20183;-64
2022/09/30 06:32:30;;;;;;;11.87;5.30;;;8.80;99.90;;;;;;5112886;27;20489;-63
2022/09/30 06:34:55;;;;;;;13.53;5.97;;;8.80;99.90;;;;;;5112849;28;20464;-63
2022/09/30 06:37:22;;;;;;;8.67;4.90;;;8.90;99.90;;;;;;5112509;28;20241;-64
2022/09/30 06:39:49;;;;;;;13.37;6.57;;;8.90;99.90;;;;;;5112664;28;20646;-64
2022/09/30 06:42:16;;;;;;;12.30;5.93;;;9.00;99.90;;;;;;5109116;28;20440;-64
2022/09/30 06:44:43;;;;;;;9.87;5.20;;;9.00;99.90;;;;;;5110296;28;20471;-64
2022/09/30 06:47:09;;;;;;;9.00;5.00;;;8.90;99.90;;;;;;5112944;28;20520;-63
2022/09/30 06:49:34;;;;;;;14.67;4.80;;;8.90;99.90;;;;;;5110992;27;20541;-64
2022/09/30 06:52:00;;;;;;;8.07;5.00;;;8.90;99.90;;;;;;5112547;28;20267;-64
2022/09/30 06:54:27;;;;;;;9.27;5.10;;;9.00;99.90;;;;;;5109316;28;20211;-64
2022/09/30 06:56:56;;;;;;;15.20;5.20;;;9.00;99.90;;;;;;5107251;28;20173;-64
2022/09/30 06:59:22;;;;;;;12.17;6.27;;;9.00;99.90;;;;;;5112269;28;20914;-64
2022/09/30 07:01:48;;;;;;;11.73;5.53;;;9.10;99.90;;;;;;5112200;28;20425;-64
2022/09/30 07:04:15;;;;;;;9.00;4.80;;;9.20;99.90;;;;;;5106726;28;20426;-64
2022/09/30 07:06:41;;;;;;;9.13;4.43;;;9.20;99.90;;;;;;5105202;28;20183;-65
2022/09/30 07:09:08;;;;;;;9.20;5.33;;;9.30;99.90;;;;;;5112426;28;20811;-65
2022/09/30 07:11:36;;;;;;;10.63;5.37;;;9.40;99.90;;;;;;5111555;28;20447;-66
2022/09/30 07:14:03;;;;;;;10.93;4.93;;;9.50;99.90;;;;;;5112077;28;20508;-64
2022/09/30 07:16:30;;;;;;;11.93;5.10;;;9.60;99.90;;;;;;5112667;28;20462;-64
2022/09/30 07:18:58;;;;;;;10.03;5.07;;;9.60;99.90;;;;;;5112295;28;20456;-64
2022/09/30 07:21:23;;;;;;;11.70;5.67;;;9.70;99.90;;;;;;5112091;28;20483;-65
2022/09/30 07:23:51;;;;;;;10.30;4.40;;;9.90;99.90;;;;;;5112099;28;20959;-65
2022/09/30 07:26:22;;;;;;;8.87;5.30;;;9.90;99.90;;;;;;5104459;28;20706;-65
2022/09/30 07:28:49;;;;;;;12.10;5.40;;;10.00;99.90;;;;;;5099893;28;20504;-64
2022/09/30 07:31:20;;;;;;;13.33;5.63;;;10.00;99.90;;;;;;5111752;28;20515;-63
2022/09/30 07:33:46;;;;;;;8.77;5.27;;;10.10;99.90;;;;;;5100339;28;20503;-63
2022/09/30 07:36:17;;;;;;;11.73;5.70;;;10.10;99.90;;;;;;5111571;28;20422;-63
2022/09/30 07:38:44;;;;;;;15.17;5.70;;;10.20;99.90;;;;;;5112319;28;20422;-63
2022/09/30 07:41:15;;;;;;;17.33;5.33;;;10.10;99.90;;;;;;5100296;28;20455;-62
2022/09/30 07:43:45;;;;;;;13.60;6.10;;;10.10;99.90;;;;;;5105894;28;20421;-63
2022/09/30 07:46:21;;;;;;;14.60;6.23;;;10.10;99.90;;;;;;5112018;28;20516;-63
2022/09/30 07:48:50;;;;;;;12.00;5.87;;;10.20;99.90;;;;;;5103089;28;20441;-63
2022/09/30 07:51:29;;;;;;;14.27;5.90;;;10.40;99.90;;;;;;5106284;28;20437;-63
2022/09/30 07:53:59;;;;;;;12.47;6.30;;;10.50;99.90;;;;;;5101676;28;20465;-63
2022/09/30 07:56:25;;;;;;;12.60;5.53;;;10.60;99.90;;;;;;5110896;28;20438;-64
2022/09/30 07:58:59;;;;;;;14.57;5.37;;;10.70;99.90;;;;;;5106979;28;20533;-64
2022/09/30 08:01:27;;;;;;;12.93;6.93;;;10.80;99.90;;;;;;5101663;28;20422;-65
2022/09/30 08:03:55;;;;;;;13.07;7.43;;;10.70;99.90;;;;;;5107387;28;20432;-65
2022/09/30 08:06:21;;;;;;;17.27;7.40;;;10.50;99.90;;;;;;5112044;28;20477;-65
2022/09/30 08:08:50;;;;;;;11.73;6.17;;;10.50;99.90;;;;;;5112098;28;20429;-64
2022/09/30 08:11:16;;;;;;;12.77;5.63;;;10.50;99.90;;;;;;5101388;28;20448;-64
2022/09/30 08:13:41;;;;;;;10.53;5.57;;;10.50;99.90;;;;;;5094311;28;20947;-65
2022/09/30 08:16:07;;;;;;;10.77;6.47;;;10.60;99.90;;;;;;5103928;28;20270;-64
2022/09/30 08:18:33;;;;;;;10.93;5.93;;;10.50;99.90;;;;;;5106338;28;20180;-65
2022/09/30 08:21:03;;;;;;;14.53;6.87;;;10.60;99.90;;;;;;5108953;28;20440;-65
2022/09/30 08:23:30;;;;;;;12.50;6.80;;;10.60;99.90;;;;;;5107839;28;20197;-64
2022/09/30 08:26:09;;;;;;;12.67;5.77;;;10.70;99.90;;;;;;5105308;28;20440;-64
2022/09/30 08:28:37;;;;;;;11.30;6.30;;;10.60;99.90;;;;;;5114115;28;20445;-64
2022/09/30 08:31:08;;;;;;;10.93;5.87;;;10.70;99.90;;;;;;5113381;28;20440;-64
2022/09/30 08:33:34;;;;;;;16.77;7.47;;;10.80;99.90;;;;;;5105943;28;20464;-64
2022/09/30 08:36:06;;;;;;;12.43;7.03;;;10.90;99.90;;;;;;5115632;28;20413;-65
2022/09/30 08:38:33;;;;;;;12.70;7.37;;;11.10;99.90;;;;;;5114466;28;20410;-64
2022/09/30 08:41:04;;;;;;;10.90;6.33;;;11.30;99.90;;;;;;5115513;28;20463;-64
2022/09/30 08:43:39;;;;;;;19.20;7.00;;;11.40;99.90;;;;;;5105544;28;20437;-63
2022/09/30 08:46:34;;;;;;;14.00;6.63;;;11.50;99.90;;;;;;5115134;28;20437;-63
2022/09/30 08:49:38;;;;;;;15.90;7.00;;;11.70;99.90;;;;;;5101536;27;20426;-65
2022/09/30 08:52:13;;;;;;;8.93;5.17;;;11.80;99.90;;;;;;5106683;28;20792;-64
2022/09/30 08:54:45;;;;;;;12.30;5.90;;;12.20;99.90;;;;;;5107511;28;20430;-65
2022/09/30 08:57:12;;;;;;;11.50;5.60;;;12.70;99.90;;;;;;5109184;28;20426;-64
2022/09/30 08:59:52;;;;;;;10.80;5.13;;;13.00;99.90;;;;;;5107050;27;20466;-64
2022/09/30 09:02:32;;;;;;;11.73;5.97;;;13.00;99.90;;;;;;5110318;28;20465;-65
2022/09/30 09:05:01;;;;;;;17.90;5.93;;;13.20;99.90;;;;;;5110254;28;20461;-66
2022/09/30 09:07:38;;;;;;;12.70;5.80;;;13.40;99.90;;;;;;5109703;28;20965;-66
2022/09/30 09:10:29;;;;;;;10.50;5.20;;;13.40;99.90;;;;;;5113544;28;20409;-65
2022/09/30 09:13:25;;;;;;;13.80;5.63;;;13.40;99.90;;;;;;5103499;28;20460;-66
2022/09/30 09:16:13;;;;;;;10.03;5.60;;;13.40;99.90;;;;;;5101599;28;20735;-65
2022/09/30 09:18:39;;;;;;;7.93;5.00;;;13.40;99.90;;;;;;5101905;28;20421;-65
2022/09/30 09:21:23;;;;;;;10.03;4.80;;;13.30;99.90;;;;;;5110597;28;20445;-65
2022/09/30 09:23:51;;;;;;;14.83;4.27;;;13.50;99.90;;;;;;5106644;28;20311;-65
2022/09/30 09:26:17;;;;;;;7.10;4.13;;;13.30;99.90;;;;;;5101382;28;20531;-64
2022/09/30 09:29:14;;;;;;;12.17;5.37;;;13.30;99.90;;;;;;5108588;28;20485;-65
2022/09/30 09:31:39;;;;;;;9.27;4.80;;;13.20;99.90;;;;;;5106667;28;20191;-65
2022/09/30 09:34:10;;;;;;;9.17;5.30;;;13.30;99.90;;;;;;5108295;28;20471;-64
2022/09/30 09:36:35;;;;;;;8.40;4.40;;;13.30;99.90;;;;;;5107940;28;20182;-64
2022/09/30 09:39:25;;;;;;;6.37;3.30;;;13.30;99.90;;;;;;5098222;28;20415;-64
2022/09/30 09:41:58;;;;;;;9.17;5.23;;;13.50;99.90;;;;;;5095290;28;20180;-64
2022/09/30 09:44:33;;;;;;;9.80;4.57;;;13.40;99.90;;;;;;5112852;28;20468;-64
2022/09/30 09:47:03;;;;;;;6.70;3.80;;;13.50;99.90;;;;;;5106266;28;20741;-64
2022/09/30 09:49:34;;;;;;;5.80;3.53;;;13.80;99.90;;;;;;5105922;28;20438;-64
2022/09/30 09:52:12;;;;;;;5.60;3.53;;;14.00;99.90;;;;;;5111329;28;20441;-65
2022/09/30 09:54:41;;;;;;;10.73;4.97;;;14.20;99.90;;;;;;5108191;28;20761;-64
2022/09/30 09:57:08;;;;;;;6.90;3.27;;;14.00;99.90;;;;;;5111280;28;20408;-64
2022/09/30 09:59:35;;;;;;;6.73;3.60;;;13.90;99.90;;;;;;5109910;28;20401;-64
2022/09/30 10:02:01;;;;;;;4.30;2.50;;;13.80;99.90;;;;;;5107793;27;20469;-64
2022/09/30 10:04:29;;;;;;;6.57;3.00;;;13.80;99.90;;;;;;5105841;28;20807;-65
2022/09/30 10:06:58;;;;;;;7.80;3.10;;;13.90;99.90;;;;;;5103062;28;20175;-64
2022/09/30 10:09:36;;;;;;;3.57;2.20;;;13.80;99.90;;;;;;5108915;27;20463;-65
2022/09/30 10:12:05;;;;;;;6.10;3.40;;;13.80;99.90;;;;;;5108336;28;20761;-64
2022/09/30 10:14:32;;;;;;;6.30;2.50;;;13.90;99.90;;;;;;5104840;28;20461;-65
2022/09/30 10:17:04;;;;;;;3.80;2.33;;;13.90;99.90;;;;;;5110426;28;20433;-65
2022/09/30 10:19:32;;;;;;;4.20;2.53;;;13.90;99.90;;;;;;5109196;28;20425;-65
2022/09/30 10:22:18;;;;;;;6.00;2.67;;;13.90;99.90;;;;;;5109275;28;20948;-64
2022/09/30 10:24:44;;;;;;;4.70;2.33;;;13.90;99.90;;;;;;5108270;28;20437;-65
2022/09/30 10:27:31;;;;;;;4.70;2.70;;;14.00;99.90;;;;;;5111014;28;20417;-65
2022/09/30 10:30:03;;;;;;;4.53;2.43;;;14.00;99.30;;;;;;5113057;28;20224;-66
2022/09/30 10:32:29;;;;;;;4.13;2.20;;;14.10;99.60;;;;;;5108623;28;20482;-66
2022/09/30 10:35:02;;;;;;;6.03;1.80;;;14.50;99.30;;;;;;5102332;28;20430;-65
2022/09/30 10:37:27;;;;;;;3.63;1.60;;;15.00;99.20;;;;;;5105332;28;20414;-64
2022/09/30 10:40:01;;;;;;;3.33;1.27;;;15.00;95.90;;;;;;5110380;28;20818;-64
2022/09/30 10:42:30;;;;;;;3.27;1.63;;;15.00;97.10;;;;;;5105001;28;20233;-64
2022/09/30 10:45:09;;;;;;;4.50;1.40;;;15.10;96.40;;;;;;5102742;28;20431;-64
2022/09/30 10:47:42;;;;;;;3.03;1.17;;;15.00;94.60;;;;;;5104901;28;20425;-64
2022/09/30 10:50:16;;;;;;;3.20;1.37;;;15.20;94.00;;;;;;5112969;28;20429;-64
2022/09/30 10:52:53;;;;;;;2.23;1.10;;;15.30;93.60;;;;;;5112481;28;20469;-64
2022/09/30 10:55:19;;;;;;;2.10;0.93;;;15.20;92.50;;;;;;5111308;28;20500;-64
2022/09/30 10:57:46;;;;;;;2.43;0.90;;;15.30;94.70;;;;;;5108845;28;20806;-64
2022/09/30 11:00:21;;;;;;;2.90;1.67;;;15.40;94.00;;;;;;5116130;28;20207;-63
2022/09/30 11:03:10;;;;;;;2.77;1.30;;;15.10;92.80;;;;;;5114642;28;20793;-65
2022/09/30 11:05:42;;;;;;;1.90;1.10;;;14.40;92.80;;;;;;5117886;28;20775;-65
2022/09/30 11:08:19;;;;;;;2.47;1.47;;;14.20;94.10;;;;;;5114185;28;20437;-68
2022/09/30 11:10:52;;;;;;;3.23;1.00;;;14.10;94.10;;;;;;5111491;28;20956;-64
2022/09/30 11:13:40;;;;;;;2.43;0.87;;;13.90;93.90;;;;;;5112197;28;20789;-65
2022/09/30 11:16:13;;;;;;;4.37;1.23;;;14.00;94.40;;;;;;5113129;28;20506;-65
2022/09/30 11:18:39;;;;;;;2.17;1.13;;;14.20;95.00;;;;;;5111034;28;20413;-66
2022/09/30 11:21:35;;;;;;;2.53;1.53;;;14.60;94.50;;;;;;5115786;28;20440;-65
2022/09/30 11:24:24;;;;;;;2.50;1.40;;;15.10;94.60;;;;;;5074427;28;20191;-64
2022/09/30 11:27:10;;;;;;;4.00;1.77;;;15.10;93.30;;;;;;5105678;28;20449;-65
2022/09/30 11:29:54;;;;;;;3.77;2.30;;;15.40;93.40;;;;;;5099123;28;20769;-64
2022/09/30 11:33:07;;;;;;;2.90;1.30;;;15.60;93.10;;;;;;5111869;28;20424;-64
2022/09/30 11:35:58;;;;;;;4.33;1.50;;;15.70;93.30;;;;;;5100933;28;20422;-64
2022/09/30 11:38:42;;;;;;;3.47;1.87;;;16.20;93.10;;;;;;5104921;28;20450;-65
2022/09/30 11:41:19;;;;;;;3.93;1.53;;;16.00;93.80;;;;;;5100717;28;20405;-65
2022/09/30 11:43:49;;;;;;;3.63;1.77;;;15.60;94.10;;;;;;5105966;28;20417;-65
2022/09/30 11:46:26;;;;;;;7.63;1.87;;;15.20;95.10;;;;;;5111525;28;20425;-65
2022/09/30 11:49:05;;;;;;;3.53;1.90;;;15.00;95.50;;;;;;5111366;28;20413;-65
2022/09/30 11:51:31;;;;;;;3.73;2.00;;;14.80;95.50;;;;;;5110989;28;20415;-64
2022/09/30 11:54:08;;;;;;;5.30;2.20;;;14.40;96.00;;;;;;5111304;28;20535;-64
2022/09/30 11:56:39;;;;;;;7.27;1.97;;;14.20;96.30;;;;;;5111537;28;20188;-65
2022/09/30 11:59:15;;;;;;;2.80;1.73;;;14.10;96.60;;;;;;5114990;28;20409;-64
2022/09/30 12:01:48;;;;;;;3.20;1.67;;;14.10;96.80;;;;;;5111992;28;20498;-65
2022/09/30 12:04:21;;;;;;;3.67;1.63;;;14.10;97.70;;;;;;5107973;28;20409;-65
2022/09/30 12:06:54;;;;;;;5.63;1.93;;;14.10;98.30;;;;;;5114803;28;20409;-65
2022/09/30 12:09:36;;;;;;;4.03;2.00;;;14.10;98.00;;;;;;5115453;28;20409;-64
2022/09/30 12:12:10;;;;;;;2.33;1.27;;;14.10;98.00;;;;;;5115388;28;20759;-65
2022/09/30 12:14:48;;;;;;;8.60;1.40;;;14.00;96.00;;;;;;5108741;28;20603;-65
2022/09/30 12:17:40;;;;;;;4.57;1.47;;;13.90;96.00;;;;;;5114337;28;20429;-64
2022/09/30 12:20:25;;;;;;;5.30;1.60;;;14.00;97.30;;;;;;5105794;28;20838;-65
2022/09/30 12:22:55;;;;;;;7.27;1.87;;;14.00;97.30;;;;;;5112697;28;20960;-64
2022/09/30 12:25:27;;;;;;;2.30;1.33;;;14.10;96.80;;;;;;5115040;28;20422;-65
2022/09/30 12:31:41;;;;;;;11.50;1.70;;;14.20;95.80;;;;;;5102782;28;20483;-65
2022/09/30 12:34:25;;;;;;;6.33;1.70;;;14.10;97.50;;;;;;5114916;28;20488;-65
2022/09/30 12:37:11;;;;;;;4.93;1.40;;;14.10;97.60;;;;;;5114948;28;20502;-64
2022/09/30 12:39:57;;;;;;;6.40;1.33;;;14.20;96.00;;;;;;5115373;28;20903;-64
2022/09/30 12:42:22;;;;;;;3.20;1.53;;;14.30;95.10;;;;;;5114004;28;20413;-65
2022/09/30 12:45:34;;;;;;;2.87;1.40;;;14.30;94.80;;;;;;5113715;28;20772;-65
2022/09/30 12:48:15;;;;;;;3.73;1.33;;;14.30;95.80;;;;;;5102166;28;20199;-65
2022/09/30 12:50:49;;;;;;;4.73;1.10;;;14.20;94.80;;;;;;5115680;28;20412;-65
2022/09/30 12:53:34;;;;;;;6.17;1.63;;;14.20;95.00;;;;;;5114650;28;20991;-64
2022/09/30 12:56:27;;;;;;;5.33;1.13;;;14.20;95.70;;;;;;5115232;28;20417;-65
2022/09/30 12:58:53;;;;;;;5.10;1.63;;;14.20;95.50;;;;;;5101012;28;20421;-64
2022/09/30 13:01:28;;;;;;;2.67;1.53;;;14.30;94.70;;;;;;5114462;28;20409;-65
2022/09/30 13:03:59;;;;;;;4.23;1.77;;;14.30;94.80;;;;;;5104369;28;20768;-65
2022/09/30 13:06:44;;;;;;;2.57;1.70;;;14.30;95.10;;;;;;5102435;28;20410;-64
2022/09/30 13:09:10;;;;;;;3.83;1.20;;;14.40;94.90;;;;;;5113674;28;20408;-64
2022/09/30 13:11:37;;;;;;;3.40;1.67;;;14.40;94.40;;;;;;5114822;27;20500;-65
2022/09/30 13:14:28;;;;;;;5.37;1.40;;;14.40;94.20;;;;;;5099821;28;20235;-65
2022/09/30 13:17:02;;;;;;;2.63;1.20;;;14.30;95.60;;;;;;5099783;28;20457;-65
2022/09/30 13:19:39;;;;;;;6.07;1.87;;;14.30;95.90;;;;;;5110639;28;20801;-66
2022/09/30 13:22:18;;;;;;;3.63;1.80;;;14.40;95.10;;;;;;5113461;28;20433;-65
2022/09/30 13:25:05;;;;;;;3.40;1.40;;;14.70;94.60;;;;;;5102426;28;20432;-65